Time;durP1;ratioP1;P1;durP2;ratioP2;P2;SDS_P1;SDS_P2;PMS_P1;PMS_P2;Temp;Humidity;BMP_temperature;BMP_pressure;BME280_temperature;BME280_humidity;BME280_pressure;Samples;Min_cycle;Max_cycle;Signal;HPM_P1;HPM_P2
2021/01/20 00:00:22;;;;;;;122.93;57.70;;;;;;;-1.34;55.20;100279.69;5036039;28;20030;-77
2021/01/20 00:02:48;;;;;;;130.37;60.40;;;;;;;-1.12;55.51;100312.19;5036031;28;20021;-77
2021/01/20 00:05:14;;;;;;;129.27;61.43;;;;;;;-1.01;55.05;100315.00;5018861;28;20034;-77
2021/01/20 00:07:39;;;;;;;121.33;59.80;;;;;;;-0.79;55.25;100359.53;5035967;28;20030;-77
2021/01/20 00:10:06;;;;;;;126.33;65.77;;;;;;;-0.66;54.84;100357.97;5035870;28;20124;-77
2021/01/20 00:12:31;;;;;;;125.43;62.00;;;;;;;-1.05;54.94;100295.38;5035458;28;20085;-77
2021/01/20 00:14:56;;;;;;;125.53;60.83;;;;;;;-0.68;54.86;100370.19;5035971;28;20067;-77
2021/01/20 00:17:22;;;;;;;135.90;66.13;;;;;;;-0.88;55.24;100325.53;5018484;28;20034;-77
2021/01/20 00:19:48;;;;;;;142.87;71.07;;;;;;;-1.17;55.20;100283.09;5035560;28;20113;-77
2021/01/20 00:22:13;;;;;;;141.80;72.27;;;;;;;-0.77;55.71;100360.28;5036035;23;20048;-77
2021/01/20 00:24:39;;;;;;;147.40;69.73;;;;;;;-0.93;55.50;100345.69;5018595;28;20395;-77
2021/01/20 00:27:06;;;;;;;146.43;72.47;;;;;;;-0.93;55.67;100345.69;5021955;28;20313;-77
2021/01/20 00:29:32;;;;;;;154.57;70.90;;;;;;;-0.84;55.79;100356.38;5049394;23;20049;-77
2021/01/20 00:31:57;;;;;;;145.80;71.30;;;;;;;-1.14;55.54;100309.69;5059679;28;20024;-77
2021/01/20 00:34:23;;;;;;;141.37;72.97;;;;;;;-1.07;55.50;100321.38;5058862;28;20324;-77
2021/01/20 00:36:48;;;;;;;140.77;70.23;;;;;;;-0.87;55.95;100360.91;5059430;28;20025;-77
2021/01/20 00:39:17;;;;;;;129.97;70.53;;;;;;;-0.88;55.63;100351.44;5058704;28;20025;-77
2021/01/20 00:41:43;;;;;;;137.73;72.60;;;;;;;-0.97;56.02;100343.25;5058478;28;20021;-77
2021/01/20 00:44:09;;;;;;;134.10;69.97;;;;;;;-1.48;55.83;100258.06;5041400;28;20058;-77
2021/01/20 00:46:34;;;;;;;134.30;69.93;;;;;;;-0.87;55.62;100366.91;5058657;28;20032;-77
2021/01/20 00:48:59;;;;;;;128.63;72.03;;;;;;;-0.88;55.85;100362.66;5058155;28;20419;-77
2021/01/20 00:51:26;;;;;;;129.87;72.10;;;;;;;-0.86;55.76;100359.97;5057976;28;20331;-77
2021/01/20 00:53:53;;;;;;;138.67;71.07;;;;;;;-0.85;55.88;100357.28;5058712;28;20045;-77
2021/01/20 00:56:18;;;;;;;128.83;67.83;;;;;;;-0.88;55.76;100361.81;5058212;28;20051;-77
2021/01/20 00:58:43;;;;;;;127.87;66.63;;;;;;;-1.53;55.80;100266.06;5057943;28;20092;-77
2021/01/20 01:01:09;;;;;;;129.73;65.07;;;;;;;-0.96;55.57;100357.06;5058096;28;20419;-77
2021/01/20 01:03:34;;;;;;;124.47;61.83;;;;;;;-1.18;55.65;100341.03;5058092;28;20032;-77
2021/01/20 01:06:00;;;;;;;125.20;63.87;;;;;;;-1.19;56.05;100347.97;5040366;28;20017;-77
2021/01/20 01:08:27;;;;;;;114.53;57.57;;;;;;;-1.51;56.11;100284.09;5057752;28;20339;-77
2021/01/20 01:10:52;;;;;;;107.40;55.70;;;;;;;-1.67;56.04;100261.63;5040016;28;20120;-77
2021/01/20 01:13:19;;;;;;;104.37;56.30;;;;;;;-1.01;56.00;100367.69;5057513;28;20049;-77
2021/01/20 01:15:44;;;;;;;106.97;56.53;;;;;;;-1.07;56.22;100362.00;5057417;28;20443;-77
2021/01/20 01:18:10;;;;;;;102.57;55.70;;;;;;;-1.22;55.66;100331.75;5057431;28;20021;-77
2021/01/20 01:20:35;;;;;;;103.77;55.70;;;;;;;-1.60;55.69;100272.50;5057268;28;20312;-77
2021/01/20 01:23:01;;;;;;;113.77;59.37;;;;;;;-1.07;55.76;100370.63;5039720;28;20055;-77
2021/01/20 01:25:26;;;;;;;106.00;55.30;;;;;;;-1.37;56.05;100308.34;5057223;28;20075;-77
2021/01/20 01:27:52;;;;;;;104.07;57.50;;;;;;;-1.08;56.04;100368.09;5057479;28;20045;-77
2021/01/20 01:30:18;;;;;;;105.40;56.00;;;;;;;-1.10;55.48;100362.16;5056924;28;20032;-77
2021/01/20 01:32:43;;;;;;;99.07;54.47;;;;;;;-1.44;56.17;100330.31;5056879;28;20092;-77
2021/01/20 01:35:09;;;;;;;102.67;53.87;;;;;;;-1.30;56.05;100343.38;5056212;28;20040;-76
2021/01/20 01:37:35;;;;;;;100.47;53.73;;;;;;;-1.11;55.54;100369.09;5040121;28;20029;-77
2021/01/20 01:40:00;;;;;;;96.93;49.30;;;;;;;-1.11;55.79;100368.28;5060783;28;20359;-77
2021/01/20 01:42:29;;;;;;;94.43;50.00;;;;;;;-1.14;55.67;100366.69;5056961;28;20028;-77
2021/01/20 01:44:55;;;;;;;106.93;54.50;;;;;;;-1.07;55.35;100372.38;5039308;28;20025;-77
2021/01/20 01:47:20;;;;;;;101.17;52.23;;;;;;;-1.48;55.74;100300.34;5056746;28;20028;-76
2021/01/20 01:49:46;;;;;;;101.80;50.40;;;;;;;-1.07;55.62;100359.41;5056772;28;20019;-76
2021/01/20 01:52:12;;;;;;;105.30;52.17;;;;;;;-1.07;55.72;100362.00;5056606;28;20032;-76
2021/01/20 01:54:41;;;;;;;98.07;51.73;;;;;;;-1.07;55.84;100364.59;5055240;28;20032;-77
2021/01/20 01:57:07;;;;;;;103.13;54.47;;;;;;;-1.06;55.77;100368.84;5056496;28;20028;-77
2021/01/20 01:59:32;;;;;;;102.07;50.93;;;;;;;-1.63;55.91;100283.84;5056401;28;20445;-77
2021/01/20 02:01:58;;;;;;;107.10;56.97;;;;;;;-1.18;55.50;100352.22;5038662;28;20029;-77
2021/01/20 02:04:23;;;;;;;108.13;58.77;;;;;;;-1.33;56.29;100340.09;5056139;28;20025;-77
2021/01/20 02:06:54;;;;;;;113.73;61.53;;;;;;;-1.35;55.70;100322.06;5058292;23;20361;-77
2021/01/20 02:09:21;;;;;;;106.07;56.63;;;;;;;-1.12;55.76;100364.00;5036402;28;20017;-76
2021/01/20 02:12:24;;;;;;;118.40;60.13;;;;;;;-1.12;55.82;100364.84;5036217;28;20436;-77
2021/01/20 02:15:32;;;;;;;118.90;59.57;;;;;;;-1.10;56.79;100362.16;5036615;28;20457;-77
2021/01/20 02:18:10;;;;;;;112.33;57.97;;;;;;;-1.06;56.05;100374.03;5036316;28;20037;-76
2021/01/20 02:21:04;;;;;;;109.57;57.43;;;;;;;-1.05;55.44;100373.94;5018940;28;20025;-77
2021/01/20 02:23:31;;;;;;;118.27;60.93;;;;;;;-1.04;55.99;100356.66;5035885;28;20052;-77
2021/01/20 02:26:26;;;;;;;121.27;61.80;;;;;;;-1.08;55.74;100355.16;5035998;28;20508;-76
2021/01/20 02:29:23;;;;;;;120.97;63.13;;;;;;;-1.08;56.13;100350.81;5001784;28;20025;-77
2021/01/20 02:31:49;;;;;;;126.17;65.23;;;;;;;-1.18;55.87;100333.25;5028892;28;20138;-77
2021/01/20 02:34:19;;;;;;;110.23;61.27;;;;;;;-1.10;55.59;100336.25;5035547;28;20025;-77
2021/01/20 02:36:46;;;;;;;113.40;57.53;;;;;;;-1.20;56.22;100314.38;5018312;28;20080;-76
2021/01/20 02:39:12;;;;;;;104.03;55.37;;;;;;;-1.14;55.74;100333.00;5018095;28;20040;-77
2021/01/20 02:41:37;;;;;;;102.50;54.37;;;;;;;-1.12;55.84;100332.91;5018697;28;20022;-76
2021/01/20 02:44:04;;;;;;;106.97;53.33;;;;;;;-1.22;55.75;100318.78;5036164;28;20031;-77
2021/01/20 02:46:31;;;;;;;100.17;52.23;;;;;;;-1.10;56.23;100325.88;5036110;28;20032;-76
2021/01/20 02:48:58;;;;;;;108.93;50.57;;;;;;;-1.16;55.50;100311.53;5040175;28;20416;-76
2021/01/20 02:51:42;;;;;;;100.80;52.17;;;;;;;-1.06;55.78;100324.81;5036610;28;20026;-77
2021/01/20 02:54:11;;;;;;;100.67;48.73;;;;;;;-1.19;55.47;100309.09;5035338;28;20060;-77
2021/01/20 02:56:39;;;;;;;104.57;54.43;;;;;;;-1.08;55.56;100322.28;5035113;28;20317;-77
2021/01/20 02:59:06;;;;;;;94.90;50.10;;;;;;;-1.33;55.66;100286.53;5035108;28;20112;-77
2021/01/20 03:01:33;;;;;;;92.23;47.43;;;;;;;-1.10;55.77;100326.72;5034797;28;20053;-77
2021/01/20 03:04:00;;;;;;;80.37;41.87;;;;;;;-1.12;55.26;100327.72;5034928;28;20017;-77
2021/01/20 03:06:28;;;;;;;74.87;39.57;;;;;;;-1.16;55.64;100334.84;5034700;28;20079;-76
2021/01/20 03:08:54;;;;;;;78.47;42.37;;;;;;;-1.20;55.33;100335.09;5035070;28;20486;-77
2021/01/20 03:11:20;;;;;;;74.20;41.93;;;;;;;-1.53;55.94;100309.25;5034665;28;20091;-77
2021/01/20 03:13:46;;;;;;;81.47;44.23;;;;;;;-1.23;56.06;100337.84;5033572;28;20021;-76
2021/01/20 03:16:12;;;;;;;70.97;40.97;;;;;;;-1.20;55.92;100335.09;5034728;28;20386;-76
2021/01/20 03:18:37;;;;;;;72.53;41.73;;;;;;;-1.21;55.72;100344.63;5034590;28;20033;-77
2021/01/20 03:21:03;;;;;;;72.43;40.77;;;;;;;-1.23;55.87;100343.03;5034779;28;20361;-77
2021/01/20 03:23:29;;;;;;;68.90;40.47;;;;;;;-1.46;55.78;100311.44;5034572;28;20032;-77
2021/01/20 03:25:56;;;;;;;76.40;41.50;;;;;;;-1.33;55.97;100322.81;5034805;28;20344;-77
2021/01/20 03:28:25;;;;;;;72.03;40.40;;;;;;;-1.30;56.11;100333.00;5017095;28;20021;-77
2021/01/20 03:30:51;;;;;;;78.93;41.03;;;;;;;-1.21;55.63;100349.81;5034703;28;20056;-77
2021/01/20 03:33:16;;;;;;;79.47;38.30;;;;;;;-1.29;55.80;100341.63;5034678;28;20083;-77
2021/01/20 03:35:42;;;;;;;79.00;39.87;;;;;;;-1.47;55.77;100321.88;5034456;28;20044;-77
2021/01/20 03:38:08;;;;;;;71.10;39.30;;;;;;;-1.32;55.51;100350.38;5034776;28;20029;-77
2021/01/20 03:40:34;;;;;;;70.93;38.57;;;;;;;-1.82;55.78;100269.38;5033184;28;20021;-76
2021/01/20 03:42:59;;;;;;;79.43;40.00;;;;;;;-1.54;55.76;100317.94;5034773;28;20031;-77
2021/01/20 03:45:25;;;;;;;74.30;39.70;;;;;;;-1.67;55.86;100286.69;5034582;28;20025;-76
2021/01/20 03:47:50;;;;;;;74.93;42.40;;;;;;;-1.23;55.87;100348.22;5033516;28;20343;-77
2021/01/20 03:50:15;;;;;;;67.67;38.50;;;;;;;-1.33;55.95;100346.13;5034697;28;20325;-77
2021/01/20 03:52:41;;;;;;;65.20;37.67;;;;;;;-1.24;56.05;100364.69;5034450;28;20022;-76
2021/01/20 03:55:06;;;;;;;77.37;40.80;;;;;;;-1.63;55.67;100304.56;5034366;28;20017;-76
2021/01/20 03:57:32;;;;;;;65.03;36.90;;;;;;;-1.34;55.76;100351.38;5033596;28;20021;-76
2021/01/20 03:59:57;;;;;;;66.80;36.53;;;;;;;-1.30;55.15;100351.13;5040271;28;20339;-77
2021/01/20 04:02:23;;;;;;;64.53;36.33;;;;;;;-1.30;55.54;100355.47;5040254;28;20053;-77
2021/01/20 04:04:48;;;;;;;67.43;38.33;;;;;;;-1.45;55.28;100304.50;5020699;28;20079;-76
2021/01/20 04:07:13;;;;;;;73.80;35.80;;;;;;;-1.26;55.70;100357.00;5038109;28;20029;-77
2021/01/20 04:09:39;;;;;;;64.07;35.67;;;;;;;-1.86;55.45;100242.84;5037942;28;20071;-76
2021/01/20 04:12:05;;;;;;;71.67;35.60;;;;;;;-1.45;54.97;100320.06;5038141;28;20022;-77
2021/01/20 04:14:30;;;;;;;73.40;36.97;;;;;;;-1.36;55.11;100320.38;5038052;28;20416;-77
2021/01/20 04:16:55;;;;;;;57.47;34.20;;;;;;;-1.09;55.05;100359.50;5038157;28;20324;-77
2021/01/20 04:19:21;;;;;;;68.63;33.43;;;;;;;-1.33;54.87;100315.03;5037988;28;20105;-77
2021/01/20 04:21:49;;;;;;;72.17;37.20;;;;;;;-1.07;55.02;100359.41;5037967;28;20074;-76
2021/01/20 04:24:15;;;;;;;74.80;36.97;;;;;;;-1.04;54.99;100364.41;5020357;28;20021;-77
2021/01/20 04:26:42;;;;;;;77.03;39.77;;;;;;;-1.13;55.21;100360.59;5037710;28;20103;-76
2021/01/20 04:29:07;;;;;;;77.93;38.23;;;;;;;-1.01;55.60;100372.03;5038247;28;20562;-77
2021/01/20 04:31:33;;;;;;;62.80;36.80;;;;;;;-1.08;54.54;100361.16;5037675;28;20105;-77
2021/01/20 04:33:58;;;;;;;75.73;39.10;;;;;;;-1.15;55.06;100335.69;5037771;28;20123;-76
2021/01/20 04:36:24;;;;;;;72.67;36.47;;;;;;;-1.03;55.49;100366.94;5037508;28;20116;-76
2021/01/20 04:38:49;;;;;;;79.10;40.10;;;;;;;-1.20;54.98;100348.88;5037601;28;20091;-77
2021/01/20 04:41:15;;;;;;;76.53;40.63;;;;;;;-1.21;55.32;100357.56;5037568;28;20370;-77
2021/01/20 04:43:42;;;;;;;70.23;39.93;;;;;;;-1.37;55.84;100339.44;5037398;28;20030;-76
2021/01/20 04:46:09;;;;;;;79.17;40.50;;;;;;;-1.29;55.69;100349.38;5037612;28;20048;-77
2021/01/20 04:48:35;;;;;;;74.83;40.23;;;;;;;-1.12;55.98;100377.81;5037469;28;20036;-77
2021/01/20 04:51:03;;;;;;;73.17;42.30;;;;;;;-1.22;55.77;100368.03;5037684;28;20025;-77
2021/01/20 04:53:31;;;;;;;71.57;40.57;;;;;;;-1.31;55.33;100361.59;5037123;28;20427;-77
2021/01/20 04:56:03;;;;;;;74.17;41.87;;;;;;;-1.15;55.63;100377.97;5037291;28;20036;-77
2021/01/20 04:58:29;;;;;;;74.83;41.53;;;;;;;-1.48;56.03;100325.41;5037073;28;20339;-77
2021/01/20 05:00:54;;;;;;;80.80;40.60;;;;;;;-1.36;55.66;100345.44;5037202;28;20025;-77
2021/01/20 05:03:20;;;;;;;81.50;43.37;;;;;;;-1.23;55.34;100363.75;5037517;28;20033;-76
2021/01/20 05:05:46;;;;;;;75.03;41.30;;;;;;;-1.36;55.80;100337.69;5037172;28;20048;-77
2021/01/20 05:08:11;;;;;;;71.00;40.43;;;;;;;-1.36;55.54;100337.69;5037354;28;20384;-76
2021/01/20 05:10:36;;;;;;;76.37;41.23;;;;;;;-1.31;55.01;100349.47;5038617;28;20027;-76
2021/01/20 05:13:02;;;;;;;76.90;41.37;;;;;;;-1.21;55.74;100374.88;5038028;28;20030;-76
2021/01/20 05:15:32;;;;;;;78.17;44.53;;;;;;;-1.24;55.39;100362.91;5037136;28;20408;-77
2021/01/20 05:17:59;;;;;;;76.50;44.13;;;;;;;-1.22;55.66;100370.63;5037025;28;20044;-77
2021/01/20 05:20:31;;;;;;;77.57;43.47;;;;;;;-1.18;55.31;100379.88;5037447;28;20018;-76
2021/01/20 05:23:15;;;;;;;75.23;42.20;;;;;;;-1.35;56.17;100355.72;5038988;28;20025;-76
2021/01/20 05:25:43;;;;;;;80.60;41.70;;;;;;;-1.20;56.00;100382.56;5038614;28;20025;-77
2021/01/20 05:28:35;;;;;;;85.30;41.87;;;;;;;-1.26;55.98;100379.47;5038486;28;20022;-77
2021/01/20 05:31:02;;;;;;;86.03;44.42;;;;;;;-1.24;56.39;100386.25;5035581;28;20036;-77
2021/01/20 05:33:31;;;;;;;78.57;43.80;;;;;;;-1.38;56.29;100347.28;5038398;28;20025;-77
2021/01/20 05:36:05;;;;;;;81.67;43.07;;;;;;;-1.08;56.65;100391.44;5036500;28;20027;-77
2021/01/20 05:38:36;;;;;;;80.30;45.40;;;;;;;-0.98;56.02;100392.59;5037760;28;20025;-77
2021/01/20 05:41:29;;;;;;;90.37;47.20;;;;;;;-0.88;55.77;100396.34;5036750;28;20027;-77
2021/01/20 05:44:11;;;;;;;103.50;48.22;;;;;;;-0.86;55.89;100401.44;5036484;28;20029;-77
2021/01/20 05:46:42;;;;;;;89.90;48.70;;;;;;;-0.86;55.71;100378.97;5036895;28;20029;-77
2021/01/20 05:49:20;;;;;;;90.73;47.87;;;;;;;-1.40;55.23;100280.03;5037618;28;20048;-77
2021/01/20 05:51:46;;;;;;;90.53;50.90;;;;;;;-0.64;55.09;100394.19;5037218;28;20126;-77
2021/01/20 05:54:11;;;;;;;99.83;53.20;;;;;;;-0.60;55.04;100400.88;5037158;28;20017;-77
2021/01/20 05:56:37;;;;;;;116.77;61.33;;;;;;;-0.84;55.42;100352.94;5036862;28;20033;-76
2021/01/20 05:59:09;;;;;;;109.40;55.57;;;;;;;-0.56;55.36;100401.53;5035870;28;20033;-77
2021/01/20 06:01:36;;;;;;;100.13;52.17;;;;;;;-0.53;55.41;100399.59;5035038;28;20088;-77
2021/01/20 06:04:04;;;;;;;107.40;56.67;;;;;;;-0.59;55.46;100386.13;5009144;28;20033;-77
2021/01/20 06:06:30;;;;;;;99.33;55.17;;;;;;;-0.61;55.12;100390.56;5016946;28;20099;-77
2021/01/20 06:08:57;;;;;;;94.87;52.93;;;;;;;-0.41;54.99;100406.69;4999485;28;20020;-77
2021/01/20 06:11:23;;;;;;;96.47;51.70;;;;;;;-0.35;55.02;100408.94;5017609;28;20026;-78
2021/01/20 06:13:48;;;;;;;106.90;56.43;;;;;;;-0.46;54.66;100402.69;5017109;28;20336;-77
2021/01/20 06:16:15;;;;;;;147.50;74.73;;;;;;;-0.39;54.91;100422.16;5039143;23;20040;-80
2021/01/20 06:19:00;;;;;;;153.20;80.50;;;;;;;-0.51;55.06;100395.16;5051175;28;20152;-79
2021/01/20 06:21:27;;;;;;;136.20;77.17;;;;;;;-0.27;54.66;100460.38;5058941;28;20037;-77
2021/01/20 06:23:59;;;;;;;144.30;74.93;;;;;;;-0.24;54.63;100431.66;5085377;23;20045;-78
2021/01/20 06:29:08;;;;;;;132.83;77.07;;;;;;;-0.19;54.84;100442.63;5069453;23;20451;-77
2021/01/20 06:31:41;;;;;;;145.63;81.33;;;;;;;-0.33;54.39;100419.22;5047951;28;20423;-77
2021/01/20 06:34:11;;;;;;;142.60;80.57;;;;;;;-0.16;55.03;100445.03;5066218;28;20039;-79
2021/01/20 06:36:43;;;;;;;136.20;75.43;;;;;;;-0.10;54.36;100447.28;5071488;23;20109;-78
2021/01/20 06:39:34;;;;;;;137.40;76.87;;;;;;;-0.03;54.22;100443.41;5059248;23;20049;-77
2021/01/20 06:42:31;;;;;;;132.17;74.93;;;;;;;0.02;54.58;100460.50;5061082;23;20037;-78
2021/01/20 06:45:25;;;;;;;131.03;71.57;;;;;;;0.01;54.96;100454.47;5047719;28;20064;-77
2021/01/20 06:47:56;;;;;;;133.80;72.57;;;;;;;0.03;54.43;100463.03;5071774;23;20041;-79
2021/01/20 06:53:08;;;;;;;131.18;70.68;;;;;;;-0.26;54.80;100417.09;5077453;23;20410;-78
2021/01/20 06:55:38;;;;;;;139.37;81.67;;;;;;;0.14;54.88;100467.59;5045495;28;20029;-77
2021/01/20 06:58:18;;;;;;;126.63;75.87;;;;;;;0.25;54.53;100471.22;5021009;28;20080;-78
2021/01/20 07:00:43;;;;;;;141.83;82.30;;;;;;;-0.11;54.23;100401.47;5035744;28;20347;-77
2021/01/20 07:03:11;;;;;;;121.87;73.40;;;;;;;0.21;54.27;100450.72;5049879;28;20104;-77
2021/01/20 07:05:38;;;;;;;134.63;77.40;;;;;;;0.49;53.89;100475.91;5043531;28;20033;-76
2021/01/20 07:08:07;;;;;;;145.60;77.87;;;;;;;0.58;54.30;100483.97;5064814;23;20052;-79
2021/01/20 07:11:02;;;;;;;145.40;87.70;;;;;;;0.67;53.92;100479.16;5050776;23;20039;-80
2021/01/20 07:13:40;;;;;;;157.47;92.10;;;;;;;0.38;53.63;100434.13;5009700;28;20044;-77
2021/01/20 07:16:08;;;;;;;163.30;95.03;;;;;;;0.82;53.63;100473.91;5021293;28;20045;-78
2021/01/20 07:18:37;;;;;;;180.13;105.10;;;;;;;0.78;53.34;100475.00;5036928;28;20032;-78
2021/01/20 07:21:06;;;;;;;185.03;108.63;;;;;;;0.61;53.53;100462.19;5024882;28;20395;-77
2021/01/20 07:23:32;;;;;;;195.63;106.93;;;;;;;0.37;53.34;100394.34;5034070;28;20394;-79
2021/01/20 07:25:58;;;;;;;165.10;96.97;;;;;;;0.75;53.70;100446.63;5023907;28;20343;-77
2021/01/20 07:28:23;;;;;;;162.03;91.17;;;;;;;0.63;53.24;100434.34;5030093;28;20034;-77
2021/01/20 07:30:49;;;;;;;191.57;111.03;;;;;;;0.73;53.32;100404.25;5018738;28;20026;-78
2021/01/20 07:33:16;;;;;;;198.53;111.23;;;;;;;1.23;53.24;100489.56;5021728;28;20037;-77
2021/01/20 07:35:42;;;;;;;194.30;109.37;;;;;;;1.17;53.07;100483.91;5025248;28;20057;-78
2021/01/20 07:38:11;;;;;;;178.57;107.10;;;;;;;0.21;53.24;100315.69;5062743;23;20049;-79
2021/01/20 07:40:43;;;;;;;163.93;96.53;;;;;;;1.20;53.08;100486.31;5065650;28;20048;-77
2021/01/20 07:43:20;;;;;;;171.67;98.03;;;;;;;1.12;53.17;100475.53;5065512;23;20053;-79
2021/01/20 07:45:45;;;;;;;169.97;100.27;;;;;;;1.07;53.06;100473.22;5062696;28;20036;-78
2021/01/20 07:48:30;;;;;;;169.87;99.23;;;;;;;0.60;53.30;100401.56;5049055;28;20386;-80
2021/01/20 07:50:56;;;;;;;177.97;97.43;;;;;;;0.88;53.26;100444.09;5070504;28;20033;-80
2021/01/20 07:53:22;;;;;;;192.97;106.87;;;;;;;0.97;53.00;100469.53;5059114;28;20032;-79
2021/01/20 07:55:52;;;;;;;192.70;110.63;;;;;;;-0.09;52.85;100285.44;5064011;23;20040;-77
2021/01/20 07:58:24;;;;;;;203.17;116.43;;;;;;;1.11;53.19;100481.69;5052159;28;20028;-77
2021/01/20 08:00:50;;;;;;;205.32;117.63;;;;;;;1.12;53.45;100484.19;5058239;28;20451;-77
2021/01/20 08:03:15;;;;;;;205.50;112.50;;;;;;;1.14;53.34;100469.31;5042127;28;20124;-80
2021/01/20 08:08:15;;;;;;;202.68;115.13;;;;;;;1.24;53.31;100469.56;5064876;28;20061;-80
2021/01/20 08:10:42;;;;;;;221.87;130.73;;;;;;;1.34;53.25;100477.63;5055212;28;20029;-77
2021/01/20 08:13:15;;;;;;;229.53;136.23;;;;;;;1.15;53.50;100446.75;5060933;28;20036;-75
2021/01/20 08:15:43;;;;;;;228.67;131.07;;;;;;;0.77;53.29;100379.78;5057060;28;20056;-75
2021/01/20 08:18:13;;;;;;;203.87;115.53;;;;;;;1.37;53.06;100462.66;5061399;28;20115;-81
2021/01/20 08:23:24;;;;;;;124.73;71.23;;;;;;;1.58;52.84;100478.72;5061653;23;20044;-75
2021/01/20 08:25:50;;;;;;;122.20;66.53;;;;;;;1.63;52.66;100481.03;5031558;28;20064;-76
2021/01/20 08:28:16;;;;;;;103.77;58.17;;;;;;;1.48;52.82;100454.19;5047362;28;20037;-76
2021/01/20 08:30:41;;;;;;;84.87;46.43;;;;;;;1.71;52.71;100470.97;5044059;28;20030;-76
2021/01/20 08:33:07;;;;;;;74.47;40.97;;;;;;;1.72;52.57;100483.88;5054602;28;20036;-76
2021/01/20 08:35:35;;;;;;;51.63;29.23;;;;;;;1.60;52.60;100463.84;5046265;28;20108;-76
2021/01/20 08:38:02;;;;;;;49.83;27.57;;;;;;;1.50;52.30;100454.94;5028269;28;20017;-77
2021/01/20 08:40:27;;;;;;;44.23;26.03;;;;;;;1.81;52.36;100488.50;5040505;28;20110;-77
2021/01/20 08:42:53;;;;;;;60.33;35.23;;;;;;;1.88;52.22;100494.97;5043469;28;20375;-77
2021/01/20 08:45:21;;;;;;;53.93;30.27;;;;;;;1.95;52.23;100481.53;5048665;28;20048;-77
2021/01/20 08:48:17;;;;;;;43.47;27.00;;;;;;;1.98;51.74;100473.53;5029051;28;20040;-76
2021/01/20 08:50:46;;;;;;;52.80;30.43;;;;;;;2.06;51.79;100476.47;5034037;23;20053;-81
2021/01/20 08:53:23;;;;;;;53.40;29.57;;;;;;;2.19;51.56;100472.94;5067342;28;20037;-76
2021/01/20 08:55:52;;;;;;;45.80;26.97;;;;;;;2.29;51.53;100477.59;5052778;28;20041;-77
2021/01/20 09:00:55;;;;;;;70.93;36.77;;;;;;;2.52;51.21;100469.88;5166106;23;20033;-77
2021/01/20 09:03:34;;;;;;;61.30;33.13;;;;;;;2.63;50.88;100470.91;5650330;23;20056;-75
2021/01/20 09:06:02;;;;;;;40.97;24.60;;;;;;;2.71;51.14;100459.03;5028708;28;20037;-75
2021/01/20 09:08:29;;;;;;;44.97;25.23;;;;;;;2.89;50.38;100477.78;5285617;23;20114;-77
2021/01/20 09:15:54;;;;;;;40.53;24.67;;;;;;;2.93;49.76;100437.50;5283246;23;20036;-77
2021/01/20 09:18:20;;;;;;;32.83;20.50;;;;;;;3.15;50.20;100455.97;5075812;23;20057;-76
2021/01/20 09:20:46;;;;;;;45.60;25.93;;;;;;;3.11;50.12;100422.38;5278956;23;20125;-77
2021/01/20 09:23:12;;;;;;;36.80;21.37;;;;;;;2.34;50.01;100293.09;5133553;23;20062;-76
2021/01/20 09:31:01;;;;;;;36.83;21.07;;;;;;;3.41;49.53;100446.25;5088763;23;20084;-76
2021/01/20 09:33:26;;;;;;;40.67;20.97;;;;;;;3.49;49.67;100440.50;5042031;28;20041;-75
2021/01/20 09:36:14;;;;;;;35.23;18.90;;;;;;;3.53;49.49;100428.06;5033917;28;20029;-82
2021/01/20 09:39:06;;;;;;;35.50;21.50;;;;;;;3.40;49.52;100389.78;5066140;23;20109;-80
2021/01/20 09:41:33;;;;;;;32.20;19.37;;;;;;;3.63;49.75;100395.94;5085666;23;20045;-75
2021/01/20 09:43:58;;;;;;;33.80;18.87;;;;;;;3.72;49.38;100400.50;5046593;28;20342;-76
2021/01/20 09:46:27;;;;;;;30.87;17.27;;;;;;;3.88;49.03;100413.25;5051644;28;20124;-76
2021/01/20 09:53:52;;;;;;;25.10;14.77;;;;;;;3.95;48.32;100350.94;5054576;23;20119;-76
2021/01/20 10:01:37;;;;;;;22.63;14.07;;;;;;;4.28;47.84;100377.13;5148027;23;20053;-76
2021/01/20 10:04:05;;;;;;;23.20;14.17;;;;;;;3.86;47.85;100299.38;5056670;28;20036;-80
2021/01/20 10:06:30;;;;;;;26.13;15.43;;;;;;;4.34;47.19;100357.50;5056578;28;20052;-76
2021/01/20 10:08:56;;;;;;;18.37;12.57;;;;;;;4.12;47.07;100325.19;5055865;28;20387;-75
2021/01/20 10:13:49;;;;;;;25.10;15.30;;;;;;;4.75;46.63;100359.53;5066921;22;20037;-80
2021/01/20 10:16:15;;;;;;;22.37;13.33;;;;;;;4.84;46.66;100344.91;5065541;23;20075;-78
2021/01/20 10:18:52;;;;;;;20.23;12.10;;;;;;;4.69;46.01;100331.25;5038423;28;20351;-79
2021/01/20 10:21:18;;;;;;;18.00;11.50;;;;;;;4.20;46.23;100227.06;5058209;28;20033;-79
2021/01/20 10:23:44;;;;;;;20.40;13.50;;;;;;;4.49;45.96;100277.06;5046967;23;20057;-78
2021/01/20 10:26:09;;;;;;;29.10;18.13;;;;;;;4.76;45.76;100303.66;5033788;28;20371;-76
2021/01/20 10:28:34;;;;;;;36.00;22.13;;;;;;;4.92;45.79;100303.25;5018808;28;20088;-76
2021/01/20 10:31:00;;;;;;;50.43;26.87;;;;;;;5.09;45.57;100327.13;5016806;28;20446;-77
2021/01/20 10:33:28;;;;;;;28.67;17.50;;;;;;;2.53;45.03;99874.66;5107225;23;20052;-78
2021/01/20 10:38:48;;;;;;;19.73;13.57;;;;;;;4.09;44.44;100105.91;5087140;23;20057;-78
2021/01/20 10:43:50;;;;;;;21.87;13.37;;;;;;;5.90;44.58;100319.66;4678445;23;20123;-77
2021/01/20 10:46:16;;;;;;;19.90;12.80;;;;;;;5.90;44.10;100301.28;5035764;28;20051;-77
2021/01/20 10:48:42;;;;;;;15.80;10.30;;;;;;;6.04;43.72;100303.63;5036764;28;20021;-77
2021/01/20 10:51:10;;;;;;;19.50;11.60;;;;;;;6.11;43.43;100299.50;5118563;23;20056;-77
2021/01/20 10:53:38;;;;;;;20.50;11.70;;;;;;;6.02;43.26;100271.47;5051135;28;20029;-77
2021/01/20 10:56:04;;;;;;;21.83;11.87;;;;;;;5.81;42.75;100236.53;5051685;28;20105;-77
2021/01/20 10:58:30;;;;;;;20.00;11.43;;;;;;;6.28;42.69;100305.94;5035319;28;20118;-76
2021/01/20 11:00:55;;;;;;;19.93;12.07;;;;;;;5.87;42.91;100228.16;5055098;28;20119;-76
2021/01/20 11:03:21;;;;;;;22.97;11.77;;;;;;;6.36;42.84;100306.09;5038200;28;20036;-77
2021/01/20 11:05:46;;;;;;;18.87;12.60;;;;;;;6.31;42.48;100295.16;5055783;28;20069;-77
2021/01/20 11:08:12;;;;;;;17.13;10.67;;;;;;;6.02;42.44;100240.84;5037647;28;20033;-75
2021/01/20 11:10:37;;;;;;;17.13;9.23;;;;;;;6.30;42.53;100283.03;5040109;28;20017;-77
2021/01/20 11:13:07;;;;;;;18.67;9.73;;;;;;;6.46;42.04;100301.72;5036847;28;20032;-76
2021/01/20 11:15:37;;;;;;;20.43;12.50;;;;;;;5.94;42.27;100203.94;5055073;28;20059;-76
2021/01/20 11:18:04;;;;;;;17.50;10.30;;;;;;;6.52;41.49;100306.44;5056396;28;20025;-76
2021/01/20 11:20:33;;;;;;;18.37;13.17;;;;;;;3.81;41.47;99903.56;5057961;23;20049;-85
2021/01/20 11:23:12;;;;;;;16.13;10.40;;;;;;;6.44;40.89;100297.56;5057408;23;20041;-87
2021/01/20 11:25:42;;;;;;;14.93;10.17;;;;;;;6.42;41.64;100291.63;5064703;23;20043;-82
2021/01/20 11:28:07;;;;;;;17.47;10.90;;;;;;;6.39;41.21;100295.34;5037956;28;20025;-81
2021/01/20 11:30:32;;;;;;;17.37;10.03;;;;;;;5.94;41.15;100218.81;5059432;28;20047;-77
2021/01/20 11:32:58;;;;;;;15.03;10.03;;;;;;;6.02;41.48;100224.28;5036142;28;20029;-77
2021/01/20 11:35:23;;;;;;;15.40;9.90;;;;;;;6.36;41.05;100275.44;5042810;28;20044;-77
2021/01/20 11:37:49;;;;;;;15.90;10.93;;;;;;;6.16;41.13;100262.41;5044609;28;20028;-77
2021/01/20 11:40:14;;;;;;;16.97;11.47;;;;;;;6.15;41.12;100256.34;5037606;28;20033;-77
2021/01/20 11:42:41;;;;;;;18.30;10.40;;;;;;;6.30;40.75;100286.47;5055282;28;20025;-76
2021/01/20 11:45:07;;;;;;;16.80;10.90;;;;;;;6.31;40.79;100277.66;5054396;28;20029;-76
2021/01/20 11:47:32;;;;;;;18.07;11.10;;;;;;;6.28;40.39;100267.41;5052031;28;20027;-77
2021/01/20 11:49:57;;;;;;;16.93;9.93;;;;;;;6.26;40.66;100265.88;5048514;28;20106;-76
2021/01/20 11:52:26;;;;;;;18.47;11.60;;;;;;;6.32;40.42;100267.97;5054697;28;20025;-77
2021/01/20 11:54:52;;;;;;;21.87;13.23;;;;;;;5.95;40.88;100203.00;5055013;28;20037;-77
2021/01/20 11:57:18;;;;;;;19.67;12.00;;;;;;;6.23;40.17;100251.25;5054432;28;20454;-77